Time;durP1;ratioP1;P1;durP2;ratioP2;P2;SDS_P1;SDS_P2;PMS_P1;PMS_P2;Temp;Humidity;BMP_temperature;BMP_pressure;BME280_temperature;BME280_humidity;BME280_pressure;Samples;Min_cycle;Max_cycle;Signal;HPM_P1;HPM_P2
2020/12/18 00:01:30;;;;;;;36.78;25.42;;;10.60;65.80;;;;;;5013951;28;20026;-70
2020/12/18 00:04:00;;;;;;;34.33;25.60;;;10.50;65.30;;;;;;5013909;28;20026;-69
2020/12/18 00:06:32;;;;;;;33.28;25.02;;;10.50;65.70;;;;;;5013237;28;20083;-72
2020/12/18 00:08:58;;;;;;;33.47;25.73;;;10.50;65.90;;;;;;5013453;28;20037;-72
2020/12/18 00:11:26;;;;;;;34.10;25.20;;;10.40;65.90;;;;;;5013522;28;20021;-71
2020/12/18 00:13:52;;;;;;;30.38;23.52;;;10.30;65.80;;;;;;5013800;28;20022;-75
2020/12/18 00:16:20;;;;;;;35.00;23.50;;;10.10;66.00;;;;;;5013649;28;20026;-74
2020/12/18 00:18:46;;;;;;;32.88;24.60;;;10.00;66.40;;;;;;5013480;28;20022;-73
2020/12/18 00:21:19;;;;;;;32.92;23.17;;;9.90;67.50;;;;;;5012854;28;20109;-75
2020/12/18 00:23:45;;;;;;;23.23;17.10;;;9.80;67.70;;;;;;5013524;28;20097;-73
2020/12/18 00:26:11;;;;;;;33.72;24.05;;;9.70;68.10;;;;;;5013369;28;20034;-75
2020/12/18 00:28:37;;;;;;;28.40;22.35;;;9.70;68.50;;;;;;5013167;28;20040;-74
2020/12/18 00:31:02;;;;;;;26.58;21.20;;;9.70;68.50;;;;;;5013471;28;20068;-74
2020/12/18 00:33:28;;;;;;;28.30;21.88;;;9.70;68.80;;;;;;5013443;28;20475;-73
2020/12/18 00:35:54;;;;;;;29.30;22.20;;;9.80;68.80;;;;;;5013568;28;20030;-72
2020/12/18 00:38:20;;;;;;;31.55;20.92;;;9.80;68.30;;;;;;5013656;28;20429;-74
2020/12/18 00:40:46;;;;;;;33.67;21.92;;;9.90;68.40;;;;;;5013428;28;20116;-75
2020/12/18 00:43:12;;;;;;;31.20;22.15;;;9.90;68.10;;;;;;5013266;28;20105;-75
2020/12/18 00:45:38;;;;;;;31.10;23.58;;;9.80;68.10;;;;;;5013242;28;20474;-73
2020/12/18 00:48:04;;;;;;;28.85;22.35;;;9.80;68.30;;;;;;5013271;28;20014;-70
2020/12/18 00:50:30;;;;;;;28.77;21.67;;;9.70;68.20;;;;;;5013045;28;20491;-74
2020/12/18 00:52:56;;;;;;;27.20;21.17;;;9.70;68.90;;;;;;5013348;28;20025;-71
2020/12/18 00:55:22;;;;;;;30.08;22.13;;;9.70;68.90;;;;;;5013083;28;20030;-74
2020/12/18 00:57:48;;;;;;;30.40;20.65;;;9.70;68.60;;;;;;5013132;28;20075;-73
2020/12/18 01:00:16;;;;;;;31.48;20.92;;;9.60;68.70;;;;;;5013217;28;20108;-74
2020/12/18 01:02:42;;;;;;;29.45;21.98;;;9.50;68.40;;;;;;5013070;28;20030;-73
2020/12/18 01:05:08;;;;;;;30.00;21.95;;;9.50;68.60;;;;;;5014075;28;20146;-72
2020/12/18 01:07:33;;;;;;;29.13;21.45;;;9.40;68.90;;;;;;5017405;28;20375;-69
2020/12/18 01:09:59;;;;;;;31.58;22.30;;;9.50;68.90;;;;;;5016172;28;20053;-73
2020/12/18 01:12:25;;;;;;;26.77;20.83;;;9.40;68.90;;;;;;5017097;28;20029;-73
2020/12/18 01:14:50;;;;;;;28.40;22.50;;;9.50;69.20;;;;;;5016947;28;20034;-73
2020/12/18 01:17:16;;;;;;;27.58;21.58;;;9.50;68.70;;;;;;5016520;28;20370;-73
2020/12/18 01:19:42;;;;;;;29.67;21.65;;;9.40;69.10;;;;;;5016025;28;20345;-71
2020/12/18 01:22:08;;;;;;;26.40;21.38;;;9.50;69.30;;;;;;5016422;28;20054;-71
2020/12/18 01:24:33;;;;;;;28.20;21.95;;;9.50;69.00;;;;;;5016966;28;20029;-72
2020/12/18 01:26:59;;;;;;;32.83;21.85;;;9.60;68.90;;;;;;5015314;28;20029;-73
2020/12/18 01:29:25;;;;;;;27.33;20.73;;;9.60;68.90;;;;;;5015994;28;20510;-71
2020/12/18 01:31:51;;;;;;;27.10;21.70;;;9.60;69.00;;;;;;5016627;28;20467;-74
2020/12/18 01:34:17;;;;;;;27.80;20.77;;;9.60;68.60;;;;;;5015117;28;20079;-74
2020/12/18 01:36:43;;;;;;;30.30;21.42;;;9.60;68.60;;;;;;5016427;28;20105;-75
2020/12/18 01:39:08;;;;;;;32.08;21.90;;;9.60;69.00;;;;;;5016620;28;20029;-72
2020/12/18 01:41:36;;;;;;;27.58;20.10;;;9.60;68.80;;;;;;5016041;28;20041;-72
2020/12/18 01:44:01;;;;;;;27.35;21.30;;;9.70;68.50;;;;;;5015970;28;20026;-73
2020/12/18 01:46:30;;;;;;;27.75;21.77;;;9.70;68.70;;;;;;5016330;28;20033;-73
2020/12/18 01:48:57;;;;;;;26.33;20.65;;;9.70;68.60;;;;;;5016032;28;20156;-72
2020/12/18 01:51:24;;;;;;;28.92;20.10;;;9.60;68.60;;;;;;5016184;28;20398;-75
2020/12/18 01:53:51;;;;;;;27.80;20.45;;;9.60;68.80;;;;;;5016275;28;20435;-72
2020/12/18 01:56:18;;;;;;;28.38;20.42;;;9.60;68.60;;;;;;5016127;28;20030;-74
2020/12/18 01:58:45;;;;;;;26.65;21.05;;;9.60;68.40;;;;;;5015819;28;20033;-72
2020/12/18 02:01:11;;;;;;;25.33;20.00;;;9.50;68.90;;;;;;5016048;28;20022;-71
2020/12/18 02:03:38;;;;;;;25.50;20.00;;;9.60;68.80;;;;;;5016254;28;20037;-72
2020/12/18 02:06:14;;;;;;;24.35;20.13;;;9.60;68.50;;;;;;5014528;28;20422;-73
2020/12/18 02:08:42;;;;;;;27.00;19.60;;;9.60;68.00;;;;;;5015840;28;20026;-73
2020/12/18 02:11:13;;;;;;;25.23;20.23;;;9.50;68.30;;;;;;5015666;28;20043;-73
2020/12/18 02:13:39;;;;;;;27.30;18.92;;;9.50;68.90;;;;;;5015783;28;20081;-71
2020/12/18 02:16:05;;;;;;;26.80;20.25;;;9.50;68.40;;;;;;5015658;28;20027;-72
2020/12/18 02:18:31;;;;;;;25.63;19.52;;;9.50;68.30;;;;;;5014983;28;20463;-70
2020/12/18 02:20:57;;;;;;;29.20;20.90;;;9.50;68.50;;;;;;5015527;28;20436;-71
2020/12/18 02:23:22;;;;;;;30.58;20.13;;;9.60;68.40;;;;;;5015700;28;20018;-73
2020/12/18 02:26:18;;;;;;;25.58;20.30;;;9.60;68.40;;;;;;5015173;28;20030;-74
2020/12/18 02:28:45;;;;;;;23.83;20.25;;;9.60;68.50;;;;;;5014771;28;20065;-74
2020/12/18 02:31:11;;;;;;;26.73;20.83;;;9.60;68.50;;;;;;5015263;28;20152;-73
2020/12/18 02:33:40;;;;;;;27.67;20.23;;;9.70;68.30;;;;;;5014271;28;20108;-75
2020/12/18 02:36:06;;;;;;;27.85;20.80;;;9.60;68.20;;;;;;5015638;28;20022;-72
2020/12/18 02:38:34;;;;;;;25.52;20.15;;;9.70;68.00;;;;;;5015624;28;20105;-69
2020/12/18 02:41:00;;;;;;;27.30;21.58;;;9.60;68.00;;;;;;5021851;28;20450;-71
2020/12/18 02:43:26;;;;;;;27.92;21.02;;;9.60;68.00;;;;;;5026231;28;20033;-69
2020/12/18 02:45:51;;;;;;;27.45;21.00;;;9.60;68.30;;;;;;5017570;28;20080;-74
2020/12/18 02:48:17;;;;;;;28.30;21.05;;;9.60;67.90;;;;;;5015235;28;20491;-76
2020/12/18 02:50:46;;;;;;;29.13;21.05;;;9.50;67.80;;;;;;5015107;28;20455;-72
2020/12/18 02:53:17;;;;;;;26.08;20.25;;;9.50;68.10;;;;;;5015024;28;20430;-72
2020/12/18 02:55:43;;;;;;;27.88;21.33;;;9.50;68.40;;;;;;5014611;28;20054;-70
2020/12/18 02:58:09;;;;;;;25.13;20.10;;;9.50;68.00;;;;;;5015058;28;20080;-73
2020/12/18 03:00:36;;;;;;;26.80;20.50;;;9.40;68.10;;;;;;5014856;28;20026;-72
2020/12/18 03:03:03;;;;;;;28.08;21.92;;;9.40;68.20;;;;;;5014796;28;20030;-74
2020/12/18 03:05:28;;;;;;;29.02;21.35;;;9.40;68.20;;;;;;5014793;28;20030;-71
2020/12/18 03:07:54;;;;;;;28.52;21.50;;;9.50;68.20;;;;;;5014802;28;20344;-74
2020/12/18 03:10:20;;;;;;;28.55;20.92;;;9.50;67.80;;;;;;5014220;28;20087;-74
2020/12/18 03:12:46;;;;;;;26.23;20.85;;;9.60;68.10;;;;;;5014615;28;20475;-74
2020/12/18 03:15:12;;;;;;;25.60;21.00;;;9.60;67.60;;;;;;5014332;28;20026;-74
2020/12/18 03:17:37;;;;;;;31.75;21.92;;;9.50;67.70;;;;;;5014542;28;20040;-74
2020/12/18 03:20:04;;;;;;;28.98;21.80;;;9.50;67.70;;;;;;5014332;28;20080;-73
2020/12/18 03:22:31;;;;;;;26.95;21.23;;;9.40;67.80;;;;;;5014316;28;20128;-76
2020/12/18 03:24:57;;;;;;;29.17;20.77;;;9.40;68.20;;;;;;5014114;28;20022;-73
2020/12/18 03:27:23;;;;;;;30.30;21.48;;;9.40;68.10;;;;;;5013612;28;20026;-73
2020/12/18 03:29:49;;;;;;;28.80;21.52;;;9.50;68.20;;;;;;5014403;28;20084;-74
2020/12/18 03:32:15;;;;;;;30.45;22.13;;;9.40;67.90;;;;;;5014104;28;20080;-74
2020/12/18 03:34:40;;;;;;;27.17;21.40;;;9.50;67.90;;;;;;5014638;28;20096;-74
2020/12/18 03:37:06;;;;;;;30.10;21.25;;;9.30;67.50;;;;;;5014073;28;20101;-74
2020/12/18 03:39:32;;;;;;;29.10;20.80;;;9.20;67.90;;;;;;5013763;28;20430;-74
2020/12/18 03:41:58;;;;;;;29.13;20.77;;;9.20;68.50;;;;;;5014106;28;20034;-73
2020/12/18 03:44:24;;;;;;;26.40;20.80;;;9.20;68.30;;;;;;5014049;28;20084;-72
2020/12/18 03:46:49;;;;;;;27.75;20.65;;;9.00;68.30;;;;;;5013722;28;20088;-74
2020/12/18 03:49:15;;;;;;;28.95;21.05;;;9.10;68.50;;;;;;5013998;28;20439;-72
2020/12/18 03:51:41;;;;;;;27.45;21.52;;;9.10;68.50;;;;;;5014211;28;20128;-75
2020/12/18 03:54:06;;;;;;;28.83;21.35;;;9.20;68.40;;;;;;5013699;28;20022;-73
2020/12/18 03:56:32;;;;;;;28.60;21.52;;;9.20;68.80;;;;;;5014115;28;20036;-75
2020/12/18 03:58:58;;;;;;;29.30;21.23;;;9.20;68.30;;;;;;5013894;28;20034;-73
2020/12/18 04:01:24;;;;;;;29.33;21.23;;;9.20;68.20;;;;;;5014048;28;20112;-74
2020/12/18 04:03:50;;;;;;;31.02;21.33;;;9.20;68.30;;;;;;5014310;28;20443;-72
2020/12/18 04:06:15;;;;;;;26.92;20.40;;;9.20;67.90;;;;;;5013714;28;20050;-71
2020/12/18 04:08:41;;;;;;;26.75;20.30;;;9.20;68.20;;;;;;5013598;28;20082;-73
2020/12/18 04:11:08;;;;;;;28.17;20.42;;;9.10;68.10;;;;;;5014063;28;20033;-73
2020/12/18 04:13:33;;;;;;;27.80;21.50;;;9.20;68.30;;;;;;5013659;28;20033;-73
2020/12/18 04:15:59;;;;;;;25.63;20.27;;;9.20;67.90;;;;;;5013792;28;20030;-72
2020/12/18 04:18:25;;;;;;;24.67;19.65;;;9.30;68.00;;;;;;5013890;28;20068;-74
2020/12/18 04:20:51;;;;;;;24.95;19.63;;;9.30;67.90;;;;;;5013808;28;20085;-72
2020/12/18 04:23:16;;;;;;;23.38;19.40;;;9.20;67.90;;;;;;5013812;28;20123;-71
2020/12/18 04:25:42;;;;;;;27.45;19.95;;;9.10;67.80;;;;;;5013632;28;20026;-73
2020/12/18 04:28:08;;;;;;;26.30;19.77;;;9.10;67.80;;;;;;5015832;28;20091;-73
2020/12/18 04:30:34;;;;;;;29.55;22.38;;;9.10;67.90;;;;;;5032314;28;20030;-72
2020/12/18 04:32:59;;;;;;;27.33;21.02;;;9.10;68.00;;;;;;5032804;28;20065;-72
2020/12/18 04:35:25;;;;;;;25.85;20.27;;;8.90;68.10;;;;;;5020910;28;20498;-74
2020/12/18 04:37:51;;;;;;;26.70;20.30;;;8.90;68.50;;;;;;5013257;28;20057;-72
2020/12/18 04:40:16;;;;;;;26.30;19.67;;;8.80;68.40;;;;;;5015091;28;20411;-76
2020/12/18 04:42:43;;;;;;;27.83;20.92;;;8.80;68.50;;;;;;5017736;28;20026;-75
2020/12/18 04:45:09;;;;;;;28.95;20.85;;;8.80;68.70;;;;;;5017914;28;20022;-74
2020/12/18 04:47:40;;;;;;;29.90;21.08;;;8.80;68.50;;;;;;5017392;28;20017;-75
2020/12/18 04:50:06;;;;;;;27.73;21.05;;;8.90;68.40;;;;;;5017071;28;20029;-74
2020/12/18 04:52:32;;;;;;;26.23;20.48;;;8.90;68.50;;;;;;5017162;28;20426;-73
2020/12/18 04:55:01;;;;;;;27.17;20.10;;;8.90;68.20;;;;;;5017473;28;20110;-74
2020/12/18 04:57:30;;;;;;;28.45;20.77;;;8.70;68.20;;;;;;5017169;28;20026;-74
2020/12/18 04:59:56;;;;;;;28.27;21.05;;;8.60;68.20;;;;;;5017253;28;20029;-75
2020/12/18 05:02:26;;;;;;;27.65;21.02;;;8.50;68.50;;;;;;5017236;28;20022;-73
2020/12/18 05:04:53;;;;;;;32.25;20.63;;;8.50;68.80;;;;;;5017564;28;20390;-76
2020/12/18 05:07:19;;;;;;;26.23;19.83;;;8.40;68.90;;;;;;5016631;28;20083;-74
2020/12/18 05:09:52;;;;;;;28.05;20.50;;;8.50;69.10;;;;;;5017082;28;20138;-74
2020/12/18 05:12:18;;;;;;;27.87;20.93;;;8.50;68.80;;;;;;5016040;28;20363;-72
2020/12/18 05:14:44;;;;;;;28.92;21.15;;;8.50;68.90;;;;;;5017587;28;20475;-72
2020/12/18 05:17:10;;;;;;;29.25;19.85;;;8.30;68.90;;;;;;5016673;28;20036;-70
2020/12/18 05:19:41;;;;;;;30.88;21.55;;;8.40;69.10;;;;;;5016560;28;20037;-70
2020/12/18 05:22:09;;;;;;;26.60;21.00;;;8.40;68.80;;;;;;5016259;28;20455;-70
2020/12/18 05:24:37;;;;;;;30.08;21.27;;;8.40;69.20;;;;;;5015652;28;20076;-70
2020/12/18 05:27:04;;;;;;;31.10;20.95;;;8.50;69.40;;;;;;5016398;28;20466;-70
2020/12/18 05:29:31;;;;;;;26.20;19.83;;;8.50;69.00;;;;;;5016310;28;20109;-72
2020/12/18 05:32:02;;;;;;;27.55;21.75;;;8.50;69.00;;;;;;5016581;28;20085;-73
2020/12/18 05:34:28;;;;;;;26.85;19.88;;;8.50;69.00;;;;;;5016450;28;20029;-71
2020/12/18 05:36:54;;;;;;;28.05;20.45;;;8.50;68.80;;;;;;5016157;28;20022;-70
2020/12/18 05:39:20;;;;;;;26.90;20.30;;;8.50;69.00;;;;;;5016276;28;20033;-70
2020/12/18 05:42:01;;;;;;;27.73;20.90;;;8.40;68.80;;;;;;5016409;28;20029;-70
2020/12/18 05:44:28;;;;;;;27.17;20.40;;;8.40;69.00;;;;;;5016055;28;20041;-70
2020/12/18 05:47:20;;;;;;;30.70;20.88;;;8.40;69.20;;;;;;5016150;28;20026;-69
2020/12/18 05:49:46;;;;;;;25.05;20.10;;;8.40;69.20;;;;;;5014790;28;20081;-72
2020/12/18 05:52:19;;;;;;;27.40;19.63;;;8.30;68.80;;;;;;5014562;28;20057;-71
2020/12/18 05:54:46;;;;;;;24.58;20.00;;;8.30;69.20;;;;;;5016077;28;20068;-72
2020/12/18 05:57:14;;;;;;;29.30;19.85;;;8.30;69.80;;;;;;5016216;28;20505;-76
2020/12/18 05:59:48;;;;;;;25.80;20.67;;;8.20;68.90;;;;;;5015849;28;20025;-73
2020/12/18 06:02:17;;;;;;;24.80;19.33;;;8.30;69.30;;;;;;5016086;28;20102;-78
2020/12/18 06:04:44;;;;;;;26.30;20.15;;;8.40;69.40;;;;;;5016222;28;20037;-75
2020/12/18 06:07:10;;;;;;;24.00;19.38;;;8.40;69.20;;;;;;5015369;28;20029;-73
2020/12/18 06:09:37;;;;;;;25.63;20.25;;;8.40;69.20;;;;;;5015562;28;20379;-76
2020/12/18 06:12:07;;;;;;;28.80;20.73;;;8.40;69.00;;;;;;5015719;28;20030;-71
2020/12/18 06:14:34;;;;;;;27.45;20.63;;;8.40;69.00;;;;;;5015721;28;20026;-74
2020/12/18 06:17:09;;;;;;;27.38;20.67;;;8.40;69.00;;;;;;5015595;28;20034;-74
2020/12/18 06:19:41;;;;;;;26.95;20.45;;;8.40;69.00;;;;;;5015298;28;20064;-74
2020/12/18 06:22:08;;;;;;;25.70;20.52;;;8.50;69.00;;;;;;5014995;28;20100;-76
2020/12/18 06:24:44;;;;;;;25.50;19.98;;;8.40;68.80;;;;;;5015486;28;20479;-75
2020/12/18 06:27:13;;;;;;;29.67;20.27;;;8.50;68.80;;;;;;5015475;28;20207;-75
2020/12/18 06:29:39;;;;;;;27.65;19.50;;;8.60;69.00;;;;;;5015564;28;20113;-76
2020/12/18 06:32:25;;;;;;;28.85;20.33;;;8.60;68.70;;;;;;5015257;28;20109;-73
2020/12/18 06:34:52;;;;;;;28.30;20.60;;;8.50;68.60;;;;;;5015517;28;20060;-75
2020/12/18 06:37:30;;;;;;;25.98;19.63;;;8.40;68.60;;;;;;5015892;28;20026;-74
2020/12/18 06:39:56;;;;;;;28.95;20.50;;;8.40;68.50;;;;;;5015280;28;20054;-75
2020/12/18 06:42:26;;;;;;;25.20;19.67;;;8.30;69.00;;;;;;5015489;28;20574;-75
2020/12/18 06:44:55;;;;;;;27.70;19.40;;;8.20;68.70;;;;;;5016612;28;20030;-75
2020/12/18 06:47:31;;;;;;;28.10;19.83;;;8.20;69.00;;;;;;5015978;28;20018;-74
2020/12/18 06:49:57;;;;;;;29.25;20.45;;;8.30;69.10;;;;;;5018115;28;20037;-77
2020/12/18 06:52:45;;;;;;;26.35;19.88;;;8.40;68.60;;;;;;5020005;28;20022;-78
2020/12/18 06:55:26;;;;;;;27.90;19.25;;;8.40;68.70;;;;;;5015374;28;20026;-71
2020/12/18 06:58:08;;;;;;;25.98;18.98;;;8.30;68.60;;;;;;5014782;28;20157;-70
2020/12/18 07:00:45;;;;;;;24.85;19.85;;;8.30;68.50;;;;;;5014679;28;20044;-73
2020/12/18 07:03:30;;;;;;;24.95;19.38;;;8.30;68.50;;;;;;5014648;28;20175;-71
2020/12/18 07:06:03;;;;;;;25.05;19.33;;;8.30;68.70;;;;;;5014820;28;20030;-72
2020/12/18 07:08:33;;;;;;;26.70;18.98;;;8.30;68.70;;;;;;5014815;28;20496;-71
2020/12/18 07:11:02;;;;;;;24.10;18.70;;;8.40;68.50;;;;;;5014663;28;20034;-71
2020/12/18 07:13:29;;;;;;;24.70;17.20;;;8.40;68.40;;;;;;5014610;28;20484;-69
2020/12/18 07:16:04;;;;;;;24.38;19.52;;;8.50;68.50;;;;;;5014753;28;20106;-71
2020/12/18 07:18:33;;;;;;;22.92;18.10;;;8.60;68.30;;;;;;5014176;28;20026;-73
2020/12/18 07:21:10;;;;;;;24.00;17.95;;;8.70;68.10;;;;;;5012747;28;20057;-70
2020/12/18 07:23:47;;;;;;;24.08;18.00;;;8.80;68.00;;;;;;5014418;28;20026;-71
2020/12/18 07:26:15;;;;;;;22.83;17.27;;;8.90;67.50;;;;;;5014326;28;20505;-74
2020/12/18 07:28:42;;;;;;;27.55;18.02;;;9.00;67.60;;;;;;5014029;28;20076;-71
2020/12/18 07:31:18;;;;;;;26.52;17.88;;;8.90;67.30;;;;;;5014764;28;20033;-74
2020/12/18 07:33:45;;;;;;;23.27;17.48;;;9.00;67.50;;;;;;5014361;28;20391;-73
2020/12/18 07:36:11;;;;;;;21.38;16.85;;;9.10;67.40;;;;;;5014398;28;20037;-73
2020/12/18 07:38:37;;;;;;;24.75;16.90;;;9.20;67.20;;;;;;5014292;28;20497;-71
2020/12/18 07:41:06;;;;;;;25.92;17.67;;;9.30;66.90;;;;;;5014517;28;20033;-72
2020/12/18 07:43:34;;;;;;;22.23;16.55;;;9.30;66.60;;;;;;5014750;28;20117;-73
2020/12/18 07:46:05;;;;;;;24.63;17.45;;;9.40;66.70;;;;;;5013855;28;20036;-81
2020/12/18 07:48:33;;;;;;;25.63;18.35;;;9.40;66.60;;;;;;5013930;28;20072;-75
2020/12/18 07:51:15;;;;;;;29.08;19.08;;;9.40;66.70;;;;;;5013702;28;20433;-76
2020/12/18 07:53:42;;;;;;;30.85;17.95;;;9.50;66.60;;;;;;5013500;28;20061;-72
2020/12/18 07:56:14;;;;;;;27.08;18.83;;;9.40;66.40;;;;;;5013774;28;20037;-75
2020/12/18 07:58:49;;;;;;;27.98;17.98;;;9.50;66.30;;;;;;5013468;28;20056;-71
2020/12/18 08:01:24;;;;;;;29.30;17.80;;;9.40;66.00;;;;;;5013750;28;20026;-75
2020/12/18 08:03:55;;;;;;;24.38;17.63;;;9.40;66.00;;;;;;5013867;28;20079;-72
2020/12/18 08:06:23;;;;;;;23.17;17.60;;;9.40;66.20;;;;;;5023521;28;20029;-78
2020/12/18 08:09:00;;;;;;;20.17;16.50;;;9.50;66.30;;;;;;5033013;28;20033;-72
2020/12/18 08:11:28;;;;;;;25.40;17.83;;;9.50;65.90;;;;;;5033682;28;20041;-71
2020/12/18 08:13:58;;;;;;;29.25;18.23;;;9.60;65.90;;;;;;5030894;28;20417;-72
2020/12/18 08:16:29;;;;;;;30.10;18.30;;;9.70;65.70;;;;;;5017588;28;20541;-71
2020/12/18 08:19:03;;;;;;;27.65;17.67;;;9.80;65.40;;;;;;5027545;28;20113;-73
2020/12/18 08:21:30;;;;;;;27.98;18.25;;;9.90;65.20;;;;;;5028034;28;20056;-72
2020/12/18 08:24:02;;;;;;;29.10;18.75;;;10.00;63.90;;;;;;5032509;28;20026;-74
2020/12/18 08:26:35;;;;;;;25.55;18.45;;;10.00;63.70;;;;;;5029397;28;20021;-73
2020/12/18 08:29:03;;;;;;;29.63;18.92;;;10.00;64.30;;;;;;5032505;28;20124;-74
2020/12/18 08:31:32;;;;;;;27.10;17.60;;;10.00;63.70;;;;;;5033190;28;20474;-73
2020/12/18 08:34:05;;;;;;;25.73;19.00;;;10.00;63.20;;;;;;5032282;28;20098;-72
2020/12/18 08:36:34;;;;;;;22.35;17.42;;;10.10;63.40;;;;;;5028734;28;20045;-74
2020/12/18 08:39:03;;;;;;;23.48;16.25;;;10.10;63.20;;;;;;5031902;28;20489;-74
2020/12/18 08:41:40;;;;;;;27.10;16.73;;;10.10;62.90;;;;;;5032069;28;20026;-74
2020/12/18 08:44:08;;;;;;;21.02;15.93;;;10.00;63.20;;;;;;5027811;28;20390;-71
2020/12/18 08:46:35;;;;;;;24.52;17.45;;;10.00;62.90;;;;;;5032345;28;20033;-75
2020/12/18 08:49:10;;;;;;;22.58;16.85;;;10.10;63.10;;;;;;5031952;28;20057;-74
2020/12/18 08:51:37;;;;;;;22.92;17.45;;;10.20;63.00;;;;;;5020261;28;20033;-71
2020/12/18 08:54:19;;;;;;;20.25;16.05;;;10.20;62.90;;;;;;5016280;28;20022;-74
2020/12/18 08:56:45;;;;;;;21.13;16.20;;;10.30;62.70;;;;;;5013118;28;20046;-72
2020/12/18 08:59:14;;;;;;;22.55;16.98;;;10.40;62.50;;;;;;5018926;28;20049;-73
2020/12/18 09:01:48;;;;;;;23.25;18.42;;;10.50;62.40;;;;;;5012885;28;20030;-72
2020/12/18 09:04:15;;;;;;;22.90;17.48;;;10.50;62.40;;;;;;5013035;28;20479;-69
2020/12/18 09:06:51;;;;;;;25.63;18.40;;;10.50;62.40;;;;;;5012766;28;20077;-76
2020/12/18 09:09:22;;;;;;;27.25;18.17;;;10.50;63.20;;;;;;5012539;28;20030;-73
2020/12/18 09:11:49;;;;;;;25.58;18.05;;;10.50;62.60;;;;;;5013206;28;20406;-71
2020/12/18 09:14:30;;;;;;;24.92;18.67;;;10.40;62.60;;;;;;5013037;28;20378;-72
2020/12/18 09:17:00;;;;;;;23.55;17.60;;;10.50;62.60;;;;;;5012330;28;20034;-74
2020/12/18 09:19:26;;;;;;;27.45;17.67;;;10.50;62.30;;;;;;5012998;28;20084;-72
2020/12/18 09:22:04;;;;;;;26.10;17.60;;;10.60;62.50;;;;;;5012044;28;20046;-75
2020/12/18 09:24:30;;;;;;;22.40;18.10;;;10.60;62.40;;;;;;5013132;28;20034;-72
2020/12/18 09:27:09;;;;;;;25.00;17.27;;;10.70;62.20;;;;;;5015047;28;20034;-73
2020/12/18 09:29:37;;;;;;;26.05;17.92;;;10.70;61.90;;;;;;5016330;28;20037;-72
2020/12/18 09:32:04;;;;;;;25.02;17.67;;;10.80;61.90;;;;;;5021646;28;20034;-74
2020/12/18 09:34:31;;;;;;;23.80;16.73;;;10.90;61.70;;;;;;5035997;28;20076;-72
2020/12/18 09:36:58;;;;;;;24.60;17.90;;;11.10;61.70;;;;;;5035402;28;20029;-73
2020/12/18 09:39:24;;;;;;;28.13;17.15;;;11.20;61.20;;;;;;5035511;28;20092;-74
2020/12/18 09:41:51;;;;;;;27.70;19.27;;;11.20;61.00;;;;;;5018687;28;20041;-74
2020/12/18 09:44:17;;;;;;;27.67;19.05;;;11.30;60.80;;;;;;5015134;28;20057;-72
2020/12/18 09:46:43;;;;;;;32.97;19.55;;;11.30;60.90;;;;;;5015227;28;20064;-71
2020/12/18 09:49:11;;;;;;;26.73;19.08;;;11.40;60.60;;;;;;5015279;28;20025;-73
2020/12/18 09:51:36;;;;;;;30.48;21.35;;;11.60;60.50;;;;;;5015560;28;20066;-70
2020/12/18 09:54:03;;;;;;;29.13;20.63;;;11.70;60.40;;;;;;5015600;28;20053;-74
2020/12/18 09:56:29;;;;;;;24.00;18.35;;;11.80;60.30;;;;;;5015760;28;20026;-72
2020/12/18 09:58:54;;;;;;;25.85;18.40;;;11.90;60.10;;;;;;5015555;28;20029;-73
2020/12/18 10:01:23;;;;;;;24.85;17.48;;;11.90;59.90;;;;;;5015896;28;20132;-71
2020/12/18 10:03:50;;;;;;;23.48;17.48;;;12.00;59.70;;;;;;5015613;28;20030;-70
2020/12/18 10:06:26;;;;;;;24.58;16.70;;;12.10;59.90;;;;;;5014408;28;20048;-76
2020/12/18 10:08:54;;;;;;;25.83;17.52;;;12.10;59.60;;;;;;5015384;28;20026;-70
2020/12/18 10:11:29;;;;;;;25.88;16.65;;;12.20;59.50;;;;;;5015609;28;20029;-71
2020/12/18 10:13:55;;;;;;;24.55;16.15;;;12.30;59.30;;;;;;5015540;28;20026;-71
2020/12/18 10:16:21;;;;;;;23.98;15.60;;;12.30;59.10;;;;;;5014195;28;20506;-70
2020/12/18 10:18:48;;;;;;;26.35;15.45;;;12.40;59.30;;;;;;5015492;28;20030;-71
2020/12/18 10:21:14;;;;;;;23.02;16.05;;;12.50;59.30;;;;;;5014813;28;20105;-74
2020/12/18 10:23:40;;;;;;;26.48;16.50;;;12.50;58.80;;;;;;5015269;28;20038;-73
2020/12/18 10:26:06;;;;;;;20.75;15.70;;;12.60;59.00;;;;;;5015542;28;20382;-73
2020/12/18 10:28:32;;;;;;;22.15;16.60;;;12.70;58.70;;;;;;5015213;28;20102;-73
2020/12/18 10:30:58;;;;;;;23.40;15.88;;;12.70;58.90;;;;;;5015008;28;20044;-73
2020/12/18 10:33:24;;;;;;;25.25;15.73;;;12.80;58.70;;;;;;5015170;28;20022;-73
2020/12/18 10:35:50;;;;;;;22.60;15.90;;;12.90;58.90;;;;;;5014914;28;20034;-73
2020/12/18 10:38:16;;;;;;;19.63;15.18;;;13.00;58.80;;;;;;5014215;28;20044;-73
2020/12/18 10:40:45;;;;;;;22.58;14.50;;;13.00;58.70;;;;;;5014146;28;20467;-71
2020/12/18 10:43:16;;;;;;;20.75;14.85;;;13.10;58.90;;;;;;5013939;28;20416;-73
2020/12/18 10:45:42;;;;;;;29.55;15.80;;;13.20;58.70;;;;;;5014685;28;20025;-72
2020/12/18 10:48:09;;;;;;;21.48;14.68;;;13.20;58.50;;;;;;5014486;28;20045;-72
2020/12/18 10:50:35;;;;;;;20.65;15.05;;;13.30;58.40;;;;;;5014204;28;20087;-73
2020/12/18 10:53:03;;;;;;;24.60;14.77;;;13.30;58.40;;;;;;5015296;28;20409;-71
2020/12/18 10:55:29;;;;;;;20.38;14.32;;;13.40;58.10;;;;;;5016500;28;20037;-72
2020/12/18 10:57:54;;;;;;;22.58;14.40;;;13.50;58.30;;;;;;5016697;28;20026;-71
2020/12/18 11:00:20;;;;;;;24.13;14.57;;;13.50;58.10;;;;;;5014253;28;20453;-73
2020/12/18 11:02:46;;;;;;;17.27;13.45;;;13.60;58.10;;;;;;5014362;28;20025;-72
2020/12/18 11:05:12;;;;;;;23.50;14.25;;;13.60;58.10;;;;;;5014508;28;20038;-72
2020/12/18 11:07:38;;;;;;;22.95;13.85;;;13.70;58.00;;;;;;5014222;28;20076;-71
2020/12/18 11:10:03;;;;;;;24.50;14.90;;;13.80;58.00;;;;;;5013922;28;20042;-69
2020/12/18 11:12:29;;;;;;;19.52;13.98;;;13.80;58.00;;;;;;5014096;28;20454;-72
2020/12/18 11:14:55;;;;;;;20.08;14.07;;;13.90;58.20;;;;;;5014029;28;20034;-72
2020/12/18 11:17:20;;;;;;;17.90;12.82;;;13.90;57.80;;;;;;5013865;28;20022;-70
2020/12/18 11:19:46;;;;;;;17.42;13.27;;;14.00;57.90;;;;;;5013584;28;20022;-73
2020/12/18 11:22:12;;;;;;;20.95;13.50;;;14.00;57.90;;;;;;5013296;28;20161;-70
2020/12/18 11:24:37;;;;;;;16.75;13.45;;;14.10;57.70;;;;;;5013415;28;20022;-69
2020/12/18 11:27:03;;;;;;;17.75;12.90;;;14.20;57.70;;;;;;5013493;28;20029;-72
2020/12/18 11:29:29;;;;;;;16.85;12.55;;;14.20;57.50;;;;;;5013483;28;20125;-71
2020/12/18 11:31:55;;;;;;;17.13;11.73;;;14.30;57.50;;;;;;5013612;28;20118;-69
2020/12/18 11:34:20;;;;;;;19.73;12.95;;;14.30;57.30;;;;;;5013837;28;20054;-70
2020/12/18 11:36:47;;;;;;;18.08;12.98;;;14.40;57.10;;;;;;5013728;28;20475;-72
2020/12/18 11:39:13;;;;;;;16.45;12.60;;;14.50;56.90;;;;;;5013722;28;20329;-72
2020/12/18 11:41:38;;;;;;;19.58;11.95;;;14.50;57.10;;;;;;5013424;28;20037;-70
2020/12/18 11:44:04;;;;;;;17.02;12.85;;;14.60;56.90;;;;;;5013451;28;20467;-70
2020/12/18 11:46:30;;;;;;;24.73;15.45;;;14.70;56.80;;;;;;5011994;28;20034;-70
2020/12/18 11:48:56;;;;;;;19.40;12.20;;;14.70;57.00;;;;;;5012968;28;20036;-70
2020/12/18 11:51:28;;;;;;;17.40;12.30;;;14.80;56.70;;;;;;5013179;28;20033;-68
2020/12/18 11:53:53;;;;;;;19.67;11.48;;;14.80;56.30;;;;;;5013568;28;20420;-72
2020/12/18 11:56:20;;;;;;;19.65;12.88;;;14.90;56.30;;;;;;5012841;28;20070;-70
2020/12/18 11:58:46;;;;;;;17.90;12.63;;;14.90;56.40;;;;;;5012936;28;20104;-70
2020/12/18 12:01:11;;;;;;;19.85;13.20;;;14.90;56.20;;;;;;5013120;28;20030;-71
2020/12/18 12:03:37;;;;;;;18.08;12.43;;;15.00;56.20;;;;;;5013415;28;20028;-69
2020/12/18 12:06:04;;;;;;;18.83;12.77;;;15.10;56.10;;;;;;5013071;28;20030;-71
2020/12/18 12:08:30;;;;;;;18.40;12.68;;;15.20;55.90;;;;;;5013169;28;20034;-72
2020/12/18 12:10:58;;;;;;;17.70;12.70;;;15.30;55.90;;;;;;5012618;28;20038;-71
2020/12/18 12:13:25;;;;;;;18.38;13.18;;;15.30;55.70;;;;;;5012761;28;20021;-70
2020/12/18 12:15:51;;;;;;;20.23;12.93;;;15.30;55.60;;;;;;5012847;28;20030;-69
2020/12/18 12:18:17;;;;;;;16.85;11.70;;;15.30;55.40;;;;;;5012886;28;20076;-70
2020/12/18 12:20:43;;;;;;;21.17;14.95;;;15.40;55.30;;;;;;5011155;28;20425;-70
2020/12/18 12:23:08;;;;;;;17.23;13.23;;;15.40;55.50;;;;;;5012900;28;20032;-72
2020/12/18 12:25:34;;;;;;;22.65;13.57;;;15.40;55.40;;;;;;5012568;28;20033;-71
2020/12/18 12:28:00;;;;;;;18.15;12.18;;;15.50;55.20;;;;;;5012854;28;20105;-72
2020/12/18 12:30:25;;;;;;;20.33;12.07;;;15.60;55.30;;;;;;5012449;28;20038;-73
2020/12/18 12:32:54;;;;;;;19.45;12.32;;;15.60;55.10;;;;;;5012808;28;20029;-71
2020/12/18 12:35:24;;;;;;;19.17;14.45;;;15.60;56.10;;;;;;5012883;28;20364;-71
2020/12/18 12:37:50;;;;;;;19.92;13.48;;;15.70;55.30;;;;;;5012619;28;20479;-71